Abbott, Pennsylvania
Current Conditions -  °F | °C
As of 8:15 PM on Monday 20 Oct 2014 (Local Time) from KN38 Reporting Station
Overcast Overcast  
Wind Chill: 50°   Ceiling: 7000
Heat Index: 50°   Visibility: 10mi
Dew Point: 36°   Wind: 9mph
Humidity: 58%   Direction: 190°S
Pressure: 29.9"   Gusts: NA
Location:  41.6755°N, 77.7071°W
Report Text: KN38 210015Z AUTO 19008KT 10SM OVC070 10/02 A2990 RMK AO2
Loading
Personal Weather Stations






























Interactive Weather Map
Tropical Storm Tracking
New forecast layout! Learn more

10-Day Weather Forecast

Advertisements
Track Severe Weather on mobile